sensor_id;sensor_type;location;lat;lon;timestamp;pressure;altitude;pressure_sealevel;temperature;humidity
71774;BME280;59607;52.130;5.430;2023-02-03T00:01:24;102528.38;;;8.87;100.00
71774;BME280;59607;52.130;5.430;2023-02-03T00:03:54;102541.34;;;8.89;100.00
71774;BME280;59607;52.130;5.430;2023-02-03T00:06:21;102551.81;;;8.89;100.00
71774;BME280;59607;52.130;5.430;2023-02-03T00:08:48;102551.00;;;8.88;100.00
71774;BME280;59607;52.130;5.430;2023-02-03T00:11:20;102548.28;;;8.90;100.00
71774;BME280;59607;52.130;5.430;2023-02-03T00:13:47;102548.28;;;8.90;100.00
71774;BME280;59607;52.130;5.430;2023-02-03T00:16:16;102556.13;;;8.90;100.00
71774;BME280;59607;52.130;5.430;2023-02-03T00:18:50;102548.28;;;8.90;100.00
71774;BME280;59607;52.130;5.430;2023-02-03T00:21:18;102546.47;;;8.91;100.00
71774;BME280;59607;52.130;5.430;2023-02-03T00:23:45;102557.78;;;8.91;100.00
71774;BME280;59607;52.130;5.430;2023-02-03T00:26:15;102548.28;;;8.90;100.00
71774;BME280;59607;52.130;5.430;2023-02-03T00:28:48;102549.31;;;8.87;100.00
71774;BME280;59607;52.130;5.430;2023-02-03T00:31:16;102567.53;;;8.89;100.00
71774;BME280;59607;52.130;5.430;2023-02-03T00:33:46;102562.41;;;8.87;100.00
71774;BME280;59607;52.130;5.430;2023-02-03T00:36:25;102560.41;;;8.91;100.00
71774;BME280;59607;52.130;5.430;2023-02-03T00:38:53;102571.63;;;8.93;100.00
71774;BME280;59607;52.130;5.430;2023-02-03T00:41:20;102567.31;;;8.92;100.00
71774;BME280;59607;52.130;5.430;2023-02-03T00:43:49;102563.03;;;8.91;100.00
71774;BME280;59607;52.130;5.430;2023-02-03T00:46:26;102562.06;;;8.92;100.00
71774;BME280;59607;52.130;5.430;2023-02-03T00:48:53;102563.88;;;8.92;100.00
71774;BME280;59607;52.130;5.430;2023-02-03T00:51:27;102556.72;;;8.94;100.00
71774;BME280;59607;52.130;5.430;2023-02-03T00:53:57;102568.88;;;8.95;100.00
71774;BME280;59607;52.130;5.430;2023-02-03T00:56:23;102568.16;;;8.93;100.00
71774;BME280;59607;52.130;5.430;2023-02-03T00:58:50;102547.09;;;8.94;100.00
71774;BME280;59607;52.130;5.430;2023-02-03T01:01:16;102552.44;;;8.93;100.00
71774;BME280;59607;52.130;5.430;2023-02-03T01:03:57;102551.59;;;8.92;100.00
71774;BME280;59607;52.130;5.430;2023-02-03T01:06:24;102551.59;;;8.92;100.00
71774;BME280;59607;52.130;5.430;2023-02-03T01:08:51;102551.59;;;8.92;100.00
71774;BME280;59607;52.130;5.430;2023-02-03T01:11:25;102530.78;;;8.91;100.00
71774;BME280;59607;52.130;5.430;2023-02-03T01:13:56;102534.13;;;8.93;100.00
71774;BME280;59607;52.130;5.430;2023-02-03T01:16:30;102532.38;;;8.93;100.00
71774;BME280;59607;52.130;5.430;2023-02-03T01:18:56;102550.56;;;8.95;100.00
71774;BME280;59607;52.130;5.430;2023-02-03T01:21:24;102554.13;;;8.94;100.00
71774;BME280;59607;52.130;5.430;2023-02-03T01:23:54;102546.38;;;8.92;100.00
71774;BME280;59607;52.130;5.430;2023-02-03T01:26:21;102557.69;;;8.93;100.00
71774;BME280;59607;52.130;5.430;2023-02-03T01:28:54;102528.91;;;8.93;100.00
71774;BME280;59607;52.130;5.430;2023-02-03T01:31:45;102516.66;;;8.93;100.00
71774;BME280;59607;52.130;5.430;2023-02-03T01:34:14;102507.13;;;8.92;100.00
71774;BME280;59607;52.130;5.430;2023-02-03T01:36:47;102501.06;;;8.92;100.00
71774;BME280;59607;52.130;5.430;2023-02-03T01:39:14;102501.19;;;8.90;100.00
71774;BME280;59607;52.130;5.430;2023-02-03T01:41:45;102495.09;;;8.89;100.00
71774;BME280;59607;52.130;5.430;2023-02-03T01:50:20;102501.19;;;8.90;100.00
71774;BME280;59607;52.130;5.430;2023-02-03T01:53:13;102499.50;;;8.89;100.00
71774;BME280;59607;52.130;5.430;2023-02-03T01:55:43;102511.66;;;8.90;100.00
71774;BME280;59607;52.130;5.430;2023-02-03T01:58:27;102499.38;;;8.91;100.00
71774;BME280;59607;52.130;5.430;2023-02-03T02:00:57;102486.28;;;8.91;100.00
71774;BME280;59607;52.130;5.430;2023-02-03T02:03:35;102475.72;;;8.92;100.00
71774;BME280;59607;52.130;5.430;2023-02-03T02:06:06;102478.34;;;8.92;100.00
71774;BME280;59607;52.130;5.430;2023-02-03T02:08:35;102463.47;;;8.93;100.00
71774;BME280;59607;52.130;5.430;2023-02-03T02:11:09;102452.06;;;8.94;100.00
71774;BME280;59607;52.130;5.430;2023-02-03T02:13:36;102469.44;;;8.95;100.00
71774;BME280;59607;52.130;5.430;2023-02-03T02:16:24;102469.44;;;8.95;100.00
71774;BME280;59607;52.130;5.430;2023-02-03T02:25:28;102484.19;;;8.96;100.00
71774;BME280;59607;52.130;5.430;2023-02-03T02:36:52;102495.50;;;8.96;100.00
71774;BME280;59607;52.130;5.430;2023-02-03T02:39:49;102486.81;;;8.96;100.00
71774;BME280;59607;52.130;5.430;2023-02-03T02:42:28;102483.38;;;8.95;100.00
71774;BME280;59607;52.130;5.430;2023-02-03T02:45:09;102485.88;;;8.97;100.00
71774;BME280;59607;52.130;5.430;2023-02-03T02:47:37;102480.66;;;8.97;100.00
71774;BME280;59607;52.130;5.430;2023-02-03T02:50:25;102483.97;;;8.99;100.00
71774;BME280;59607;52.130;5.430;2023-02-03T02:52:53;102463.88;;;8.99;100.00
71774;BME280;59607;52.130;5.430;2023-02-03T02:55:24;102459.47;;;9.00;100.00
71774;BME280;59607;52.130;5.430;2023-02-03T02:58:01;102464.84;;;8.98;100.00
71774;BME280;59607;52.130;5.430;2023-02-03T03:00:33;102477.91;;;8.98;100.00
71774;BME280;59607;52.130;5.430;2023-02-03T03:03:14;102458.63;;;8.99;100.00
71774;BME280;59607;52.130;5.430;2023-02-03T03:05:55;102453.28;;;9.01;100.00
71774;BME280;59607;52.130;5.430;2023-02-03T03:08:33;102439.25;;;9.02;100.00
71774;BME280;59607;52.130;5.430;2023-02-03T03:11:05;102447.09;;;9.02;100.00
71774;BME280;59607;52.130;5.430;2023-02-03T03:13:52;102456.63;;;9.03;100.00
71774;BME280;59607;52.130;5.430;2023-02-03T03:16:26;102450.56;;;9.03;100.00
71774;BME280;59607;52.130;5.430;2023-02-03T03:18:57;102451.28;;;9.05;100.00
71774;BME280;59607;52.130;5.430;2023-02-03T03:21:33;102463.19;;;9.09;100.00
71774;BME280;59607;52.130;5.430;2023-02-03T03:24:10;102448.44;;;9.08;100.00
71774;BME280;59607;52.130;5.430;2023-02-03T03:27:17;102435.25;;;9.09;100.00
71774;BME280;59607;52.130;5.430;2023-02-03T03:30:01;102442.13;;;9.10;100.00
71774;BME280;59607;52.130;5.430;2023-02-03T03:32:30;102445.72;;;9.09;100.00
71774;BME280;59607;52.130;5.430;2023-02-03T03:35:01;102452.59;;;9.10;100.00
71774;BME280;59607;52.130;5.430;2023-02-03T03:37:47;102455.22;;;9.10;100.00
71774;BME280;59607;52.130;5.430;2023-02-03T03:40:30;102460.47;;;9.10;100.00
71774;BME280;59607;52.130;5.430;2023-02-03T03:43:19;102463.91;;;9.11;100.00
71774;BME280;59607;52.130;5.430;2023-02-03T03:46:12;102462.97;;;9.12;100.00
71774;BME280;59607;52.130;5.430;2023-02-03T03:49:02;102474.41;;;9.11;100.00
71774;BME280;59607;52.130;5.430;2023-02-03T03:51:54;102468.19;;;9.12;100.00
71774;BME280;59607;52.130;5.430;2023-02-03T03:54:40;102479.41;;;9.14;100.00
71774;BME280;59607;52.130;5.430;2023-02-03T03:57:37;102478.56;;;9.13;100.00
71774;BME280;59607;52.130;5.430;2023-02-03T04:00:08;102495.97;;;9.15;100.00
71774;BME280;59607;52.130;5.430;2023-02-03T04:03:00;102481.06;;;9.15;100.00
71774;BME280;59607;52.130;5.430;2023-02-03T04:05:35;102486.19;;;9.17;100.00
71774;BME280;59607;52.130;5.430;2023-02-03T04:08:02;102484.41;;;9.17;100.00
71774;BME280;59607;52.130;5.430;2023-02-03T04:10:32;102470.47;;;9.17;100.00
71774;BME280;59607;52.130;5.430;2023-02-03T04:12:59;102470.25;;;9.20;100.00
71774;BME280;59607;52.130;5.430;2023-02-03T04:15:27;102470.13;;;9.21;100.00
71774;BME280;59607;52.130;5.430;2023-02-03T04:17:57;102476.34;;;9.20;100.00
71774;BME280;59607;52.130;5.430;2023-02-03T04:20:23;102478.09;;;9.20;100.00
71774;BME280;59607;52.130;5.430;2023-02-03T04:22:51;102485.72;;;9.23;100.00
71774;BME280;59607;52.130;5.430;2023-02-03T04:25:18;102471.47;;;9.27;100.00
71774;BME280;59607;52.130;5.430;2023-02-03T04:27:54;102480.06;;;9.29;100.00
71774;BME280;59607;52.130;5.430;2023-02-03T04:30:23;102466.88;;;9.31;100.00
71774;BME280;59607;52.130;5.430;2023-02-03T04:32:52;102472.91;;;9.31;100.00
71774;BME280;59607;52.130;5.430;2023-02-03T04:35:19;102468.53;;;9.32;100.00
71774;BME280;59607;52.130;5.430;2023-02-03T04:37:49;102459.72;;;9.33;100.00
71774;BME280;59607;52.130;5.430;2023-02-03T04:40:28;102469.94;;;9.36;100.00
71774;BME280;59607;52.130;5.430;2023-02-03T04:43:05;102481.16;;;9.38;100.00
71774;BME280;59607;52.130;5.430;2023-02-03T04:45:33;102475.91;;;9.38;100.00
71774;BME280;59607;52.130;5.430;2023-02-03T04:47:59;102478.31;;;9.41;100.00
71774;BME280;59607;52.130;5.430;2023-02-03T04:50:25;102484.50;;;9.40;100.00
71774;BME280;59607;52.130;5.430;2023-02-03T04:52:55;102479.38;;;9.38;100.00
71774;BME280;59607;52.130;5.430;2023-02-03T04:55:27;102460.94;;;9.40;100.00
71774;BME280;59607;52.130;5.430;2023-02-03T04:57:58;102465.94;;;9.43;100.00
71774;BME280;59607;52.130;5.430;2023-02-03T05:00:27;102472.03;;;9.44;100.00
71774;BME280;59607;52.130;5.430;2023-02-03T05:02:54;102453.69;;;9.44;100.00
71774;BME280;59607;52.130;5.430;2023-02-03T05:05:24;102449.28;;;9.44;100.00
71774;BME280;59607;52.130;5.430;2023-02-03T05:07:51;102461.31;;;9.47;100.00
71774;BME280;59607;52.130;5.430;2023-02-03T05:10:17;102461.19;;;9.48;100.00
71774;BME280;59607;52.130;5.430;2023-02-03T05:12:45;102448.22;;;9.47;100.00
71774;BME280;59607;52.130;5.430;2023-02-03T05:15:16;102440.47;;;9.45;100.00
71774;BME280;59607;52.130;5.430;2023-02-03T05:17:43;102451.66;;;9.47;100.00
71774;BME280;59607;52.130;5.430;2023-02-03T05:20:20;102461.09;;;9.50;100.00
71774;BME280;59607;52.130;5.430;2023-02-03T05:22:47;102479.53;;;9.48;100.00
71774;BME280;59607;52.130;5.430;2023-02-03T05:25:27;102463.81;;;9.48;100.00
71774;BME280;59607;52.130;5.430;2023-02-03T05:27:57;102464.63;;;9.49;100.00
71774;BME280;59607;52.130;5.430;2023-02-03T05:30:23;102449.66;;;9.51;100.00
71774;BME280;59607;52.130;5.430;2023-02-03T05:32:50;102456.66;;;9.50;100.00
71774;BME280;59607;52.130;5.430;2023-02-03T05:35:17;102473.22;;;9.51;100.00
71774;BME280;59607;52.130;5.430;2023-02-03T05:37:48;102481.06;;;9.51;100.00
71774;BME280;59607;52.130;5.430;2023-02-03T05:40:15;102445.38;;;9.50;100.00
71774;BME280;59607;52.130;5.430;2023-02-03T05:43:01;102467.13;;;9.50;100.00
71774;BME280;59607;52.130;5.430;2023-02-03T05:45:34;102474.28;;;9.48;100.00
71774;BME280;59607;52.130;5.430;2023-02-03T05:48:00;102469.19;;;9.47;100.00
71774;BME280;59607;52.130;5.430;2023-02-03T05:50:35;102480.34;;;9.49;100.00
71774;BME280;59607;52.130;5.430;2023-02-03T05:53:05;102469.06;;;9.48;100.00
71774;BME280;59607;52.130;5.430;2023-02-03T05:55:46;102475.97;;;9.49;100.00
71774;BME280;59607;52.130;5.430;2023-02-03T05:58:23;102469.06;;;9.48;100.00
71774;BME280;59607;52.130;5.430;2023-02-03T06:00:50;102474.41;;;9.47;100.00
71774;BME280;59607;52.130;5.430;2023-02-03T06:03:24;102464.06;;;9.45;100.00
71774;BME280;59607;52.130;5.430;2023-02-03T06:05:50;102455.47;;;9.43;100.00
71774;BME280;59607;52.130;5.430;2023-02-03T06:08:26;102459.84;;;9.43;100.00
71774;BME280;59607;52.130;5.430;2023-02-03T06:10:57;102470.22;;;9.44;100.00
71774;BME280;59607;52.130;5.430;2023-02-03T06:13:28;102470.22;;;9.44;100.00
71774;BME280;59607;52.130;5.430;2023-02-03T06:15:55;102461.66;;;9.42;100.00
71774;BME280;59607;52.130;5.430;2023-02-03T06:18:21;102472.13;;;9.42;100.00
71774;BME280;59607;52.130;5.430;2023-02-03T06:21:05;102458.09;;;9.43;100.00
71774;BME280;59607;52.130;5.430;2023-02-03T06:23:34;102472.94;;;9.43;100.00
71774;BME280;59607;52.130;5.430;2023-02-03T06:26:01;102473.91;;;9.42;100.00
71774;BME280;59607;52.130;5.430;2023-02-03T06:28:30;102478.19;;;9.43;100.00
71774;BME280;59607;52.130;5.430;2023-02-03T06:30:58;102471.19;;;9.43;100.00
71774;BME280;59607;52.130;5.430;2023-02-03T06:33:25;102482.50;;;9.44;100.00
71774;BME280;59607;52.130;5.430;2023-02-03T06:35:57;102480.00;;;9.42;100.00
71774;BME280;59607;52.130;5.430;2023-02-03T06:38:31;102482.63;;;9.42;100.00
71774;BME280;59607;52.130;5.430;2023-02-03T06:40:59;102474.03;;;9.40;100.00
71774;BME280;59607;52.130;5.430;2023-02-03T06:43:26;102468.91;;;9.38;100.00
71774;BME280;59607;52.130;5.430;2023-02-03T06:45:52;102468.91;;;9.38;100.00
71774;BME280;59607;52.130;5.430;2023-02-03T06:48:18;102486.41;;;9.38;100.00
71774;BME280;59607;52.130;5.430;2023-02-03T06:50:45;102472.56;;;9.36;100.00
71774;BME280;59607;52.130;5.430;2023-02-03T06:53:15;102492.47;;;9.38;100.00
71774;BME280;59607;52.130;5.430;2023-02-03T06:55:45;102486.41;;;9.38;100.00
71774;BME280;59607;52.130;5.430;2023-02-03T06:58:15;102496.97;;;9.36;100.00
71774;BME280;59607;52.130;5.430;2023-02-03T07:00:41;102513.66;;;9.35;100.00
71774;BME280;59607;52.130;5.430;2023-02-03T07:03:10;102514.47;;;9.36;100.00
71774;BME280;59607;52.130;5.430;2023-02-03T07:05:43;102516.28;;;9.35;100.00
71774;BME280;59607;52.130;5.430;2023-02-03T07:08:13;102517.09;;;9.36;100.00
71774;BME280;59607;52.130;5.430;2023-02-03T07:10:41;102517.94;;;9.36;100.00
71774;BME280;59607;52.130;5.430;2023-02-03T07:13:08;102539.72;;;9.37;100.00
71774;BME280;59607;52.130;5.430;2023-02-03T07:15:34;102519.50;;;9.39;100.00
71774;BME280;59607;52.130;5.430;2023-02-03T07:18:06;102503.81;;;9.39;100.00
71774;BME280;59607;52.130;5.430;2023-02-03T07:20:33;102527.47;;;9.37;100.00
71774;BME280;59607;52.130;5.430;2023-02-03T07:23:05;102525.69;;;9.38;100.00
71774;BME280;59607;52.130;5.430;2023-02-03T07:25:34;102529.25;;;9.37;100.00
71774;BME280;59607;52.130;5.430;2023-02-03T07:28:03;102527.56;;;9.36;100.00
71774;BME280;59607;52.130;5.430;2023-02-03T07:30:34;102524.94;;;9.36;100.00
71774;BME280;59607;52.130;5.430;2023-02-03T07:33:00;102537.22;;;9.35;100.00
71774;BME280;59607;52.130;5.430;2023-02-03T07:35:27;102545.91;;;9.36;100.00
71774;BME280;59607;52.130;5.430;2023-02-03T07:37:59;102533.75;;;9.35;100.00
71774;BME280;59607;52.130;5.430;2023-02-03T07:40:26;102532.81;;;9.36;100.00
71774;BME280;59607;52.130;5.430;2023-02-03T07:42:53;102532.72;;;9.37;100.00
71774;BME280;59607;52.130;5.430;2023-02-03T07:45:22;102520.66;;;9.35;100.00
71774;BME280;59607;52.130;5.430;2023-02-03T07:47:50;102532.00;;;9.35;100.00
71774;BME280;59607;52.130;5.430;2023-02-03T07:50:17;102532.00;;;9.35;100.00
71774;BME280;59607;52.130;5.430;2023-02-03T07:52:49;102533.66;;;9.36;100.00
71774;BME280;59607;52.130;5.430;2023-02-03T07:55:16;102544.97;;;9.37;100.00
71774;BME280;59607;52.130;5.430;2023-02-03T07:57:57;102541.38;;;9.38;100.00
71774;BME280;59607;52.130;5.430;2023-02-03T08:00:26;102539.50;;;9.40;100.00
71774;BME280;59607;52.130;5.430;2023-02-03T08:02:57;102546.41;;;9.41;100.00
71774;BME280;59607;52.130;5.430;2023-02-03T08:05:27;102542.84;;;9.42;100.00
71774;BME280;59607;52.130;5.430;2023-02-03T08:07:57;102549.75;;;9.43;100.00
71774;BME280;59607;52.130;5.430;2023-02-03T08:10:27;102550.59;;;9.44;100.00
71774;BME280;59607;52.130;5.430;2023-02-03T08:12:58;102560.97;;;9.45;100.00
71774;BME280;59607;52.130;5.430;2023-02-03T08:15:25;102563.34;;;9.48;100.00
71774;BME280;59607;52.130;5.430;2023-02-03T08:17:58;102565.97;;;9.48;100.00
71774;BME280;59607;52.130;5.430;2023-02-03T08:20:26;102573.81;;;9.48;100.00
71774;BME280;59607;52.130;5.430;2023-02-03T08:22:53;102575.38;;;9.51;100.00
71774;BME280;59607;52.130;5.430;2023-02-03T08:25:25;102570.88;;;9.53;100.00
71774;BME280;59607;52.130;5.430;2023-02-03T08:27:52;102582.06;;;9.55;100.00
71774;BME280;59607;52.130;5.430;2023-02-03T08:30:18;102576.72;;;9.57;100.00
71774;BME280;59607;52.130;5.430;2023-02-03T08:32:59;102576.63;;;9.58;100.00
71774;BME280;59607;52.130;5.430;2023-02-03T08:35:33;102586.13;;;9.59;100.00
71774;BME280;59607;52.130;5.430;2023-02-03T08:38:00;102600.78;;;9.62;100.00
71774;BME280;59607;52.130;5.430;2023-02-03T08:40:29;102589.38;;;9.63;100.00
71774;BME280;59607;52.130;5.430;2023-02-03T08:43:00;102581.50;;;9.63;100.00
71774;BME280;59607;52.130;5.430;2023-02-03T08:45:33;102588.41;;;9.64;100.00
71774;BME280;59607;52.130;5.430;2023-02-03T08:48:06;102601.41;;;9.66;100.00
71774;BME280;59607;52.130;5.430;2023-02-03T08:50:36;102607.38;;;9.68;100.00
71774;BME280;59607;52.130;5.430;2023-02-03T08:53:05;102594.03;;;9.71;100.00
71774;BME280;59607;52.130;5.430;2023-02-03T08:55:32;102580.94;;;9.71;100.00
71774;BME280;59607;52.130;5.430;2023-02-03T08:58:04;102598.22;;;9.73;100.00
71774;BME280;59607;52.130;5.430;2023-02-03T09:00:30;102609.41;;;9.75;100.00
71774;BME280;59607;52.130;5.430;2023-02-03T09:03:03;102612.66;;;9.79;100.00
71774;BME280;59607;52.130;5.430;2023-02-03T09:05:38;102604.44;;;9.84;100.00
71774;BME280;59607;52.130;5.430;2023-02-03T09:08:09;102604.22;;;9.87;100.00
71774;BME280;59607;52.130;5.430;2023-02-03T09:10:36;102609.13;;;9.92;100.00
71774;BME280;59607;52.130;5.430;2023-02-03T09:13:08;102620.22;;;9.95;100.00
71774;BME280;59607;52.130;5.430;2023-02-03T09:15:39;102620.94;;;9.97;100.00
71774;BME280;59607;52.130;5.430;2023-02-03T09:18:11;102612.84;;;10.00;100.00
71774;BME280;59607;52.130;5.430;2023-02-03T09:20:37;102600.69;;;9.99;100.00
71774;BME280;59607;52.130;5.430;2023-02-03T09:23:04;102610.22;;;10.00;100.00
71774;BME280;59607;52.130;5.430;2023-02-03T09:25:35;102611.88;;;10.02;100.00
71774;BME280;59607;52.130;5.430;2023-02-03T09:28:01;102611.66;;;10.05;100.00
71774;BME280;59607;52.130;5.430;2023-02-03T09:30:28;102632.28;;;10.09;100.00
71774;BME280;59607;52.130;5.430;2023-02-03T09:33:04;102614.91;;;10.08;100.00
71774;BME280;59607;52.130;5.430;2023-02-03T09:35:30;102614.91;;;10.08;100.00
71774;BME280;59607;52.130;5.430;2023-02-03T09:37:57;102633.97;;;10.10;100.00
71774;BME280;59607;52.130;5.430;2023-02-03T09:40:33;102614.78;;;10.10;100.00
71774;BME280;59607;52.130;5.430;2023-02-03T09:46:23;102636.59;;;10.10;100.00
71774;BME280;59607;52.130;5.430;2023-02-03T09:49:01;102634.91;;;10.09;100.00
71774;BME280;59607;52.130;5.430;2023-02-03T09:51:44;102637.53;;;10.09;100.00
71774;BME280;59607;52.130;5.430;2023-02-03T09:54:35;102626.94;;;10.11;100.00
71774;BME280;59607;52.130;5.430;2023-02-03T09:57:06;102640.16;;;10.09;100.00
71774;BME280;59607;52.130;5.430;2023-02-03T09:59:41;102625.16;;;10.11;100.00
71774;BME280;59607;52.130;5.430;2023-02-03T10:02:40;102634.69;;;10.12;100.00
71774;BME280;59607;52.130;5.430;2023-02-03T10:05:37;102631.00;;;10.15;100.00
71774;BME280;59607;52.130;5.430;2023-02-03T10:14:05;102662.25;;;10.18;100.00
71774;BME280;59607;52.130;5.430;2023-02-03T10:16:47;102657.00;;;10.18;100.00
71774;BME280;59607;52.130;5.430;2023-02-03T10:19:22;102656.03;;;10.19;100.00
71774;BME280;59607;52.130;5.430;2023-02-03T10:21:56;102654.13;;;10.21;100.00
71774;BME280;59607;52.130;5.430;2023-02-03T10:24:38;102652.94;;;10.25;100.00
71774;BME280;59607;52.130;5.430;2023-02-03T10:27:16;102662.50;;;10.27;100.00
71774;BME280;59607;52.130;5.430;2023-02-03T10:29:49;102665.81;;;10.29;100.00
71774;BME280;59607;52.130;5.430;2023-02-03T10:32:27;102669.19;;;10.31;100.00
71774;BME280;59607;52.130;5.430;2023-02-03T10:34:56;102669.19;;;10.31;100.00
71774;BME280;59607;52.130;5.430;2023-02-03T10:37:44;102670.84;;;10.32;100.00
71774;BME280;59607;52.130;5.430;2023-02-03T10:40:16;102648.94;;;10.33;100.00
71774;BME280;59607;52.130;5.430;2023-02-03T10:42:46;102678.47;;;10.35;100.00
71774;BME280;59607;52.130;5.430;2023-02-03T10:45:36;102686.34;;;10.35;100.00
71774;BME280;59607;52.130;5.430;2023-02-03T10:48:12;102690.44;;;10.39;100.00
71774;BME280;59607;52.130;5.430;2023-02-03T10:50:46;102690.19;;;10.42;100.00
71774;BME280;59607;52.130;5.430;2023-02-03T10:53:33;102689.22;;;10.43;100.00
71774;BME280;59607;52.130;5.430;2023-02-03T10:56:06;102673.38;;;10.45;100.00
71774;BME280;59607;52.130;5.430;2023-02-03T10:58:48;102684.50;;;10.48;100.00
71774;BME280;59607;52.130;5.430;2023-02-03T11:01:17;102686.91;;;10.52;100.00
71774;BME280;59607;52.130;5.430;2023-02-03T11:04:00;102665.41;;;10.46;100.00
71774;BME280;59607;52.130;5.430;2023-02-03T11:06:30;102692.59;;;10.45;100.00
71774;BME280;59607;52.130;5.430;2023-02-03T11:09:00;102687.00;;;10.50;100.00
71774;BME280;59607;52.130;5.430;2023-02-03T11:11:28;102697.84;;;10.45;100.00
71774;BME280;59607;52.130;5.430;2023-02-03T11:14:15;102712.13;;;10.41;100.00
71774;BME280;59607;52.130;5.430;2023-02-03T11:16:44;102699.72;;;10.43;100.00
71774;BME280;59607;52.130;5.430;2023-02-03T11:19:32;102711.78;;;10.46;100.00
71774;BME280;59607;52.130;5.430;2023-02-03T11:21:59;102692.59;;;10.45;100.00
71774;BME280;59607;52.130;5.430;2023-02-03T11:24:30;102700.69;;;10.42;100.00
71774;BME280;59607;52.130;5.430;2023-02-03T11:27:04;102696.41;;;10.41;100.00
71774;BME280;59607;52.130;5.430;2023-02-03T11:30:05;102688.84;;;10.36;100.00
71774;BME280;59607;52.130;5.430;2023-02-03T11:32:38;102703.66;;;10.37;100.00
71774;BME280;59607;52.130;5.430;2023-02-03T11:35:19;102692.94;;;10.41;100.00
71774;BME280;59607;52.130;5.430;2023-02-03T11:38:09;102694.59;;;10.42;100.00
71774;BME280;59607;52.130;5.430;2023-02-03T11:41:00;102697.84;;;10.45;100.00
71774;BME280;59607;52.130;5.430;2023-02-03T11:43:27;102708.31;;;10.45;100.00
71774;BME280;59607;52.130;5.430;2023-02-03T11:46:13;102705.69;;;10.45;100.00
71774;BME280;59607;52.130;5.430;2023-02-03T11:49:51;102697.00;;;10.45;100.00
71774;BME280;59607;52.130;5.430;2023-02-03T11:52:01;102700.44;;;10.45;100.00
71774;BME280;59607;52.130;5.430;2023-02-03T11:54:49;102687.25;;;10.47;100.00
71774;BME280;59607;52.130;5.430;2023-02-03T11:58:13;102674.22;;;10.45;100.00
71774;BME280;59607;52.130;5.430;2023-02-03T12:09:47;102690.91;;;10.44;100.00
71774;BME280;59607;52.130;5.430;2023-02-03T12:18:13;102707.91;;;10.27;100.00
71774;BME280;59607;52.130;5.430;2023-02-03T12:23:59;102724.50;;;10.28;100.00
71774;BME280;59607;52.130;5.430;2023-02-03T12:29:28;102723.38;;;10.19;100.00
71774;BME280;59607;52.130;5.430;2023-02-03T12:32:19;102730.03;;;10.11;100.00
71774;BME280;59607;52.130;5.430;2023-02-03T12:35:02;102738.13;;;10.08;100.00
71774;BME280;59607;52.130;5.430;2023-02-03T12:37:43;102745.47;;;10.03;100.00
71774;BME280;59607;52.130;5.430;2023-02-03T12:40:46;102744.84;;;9.99;100.00
71774;BME280;59607;52.130;5.430;2023-02-03T12:46:14;102758.84;;;9.87;100.00
71774;BME280;59607;52.130;5.430;2023-02-03T12:57:26;102775.03;;;9.81;100.00
71774;BME280;59607;52.130;5.430;2023-02-03T13:00:19;102785.41;;;9.82;100.00
71774;BME280;59607;52.130;5.430;2023-02-03T13:06:01;102771.34;;;9.83;100.00
71774;BME280;59607;52.130;5.430;2023-02-03T13:08:53;102777.31;;;9.85;100.00
71774;BME280;59607;52.130;5.430;2023-02-03T13:17:00;102780.22;;;9.94;100.00
71774;BME280;59607;52.130;5.430;2023-02-03T13:19:52;102784.28;;;9.98;100.00
71774;BME280;59607;52.130;5.430;2023-02-03T13:22:24;102784.06;;;10.01;100.00
71774;BME280;59607;52.130;5.430;2023-02-03T13:25:08;102788.50;;;10.00;100.00
71774;BME280;59607;52.130;5.430;2023-02-03T13:27:45;102777.06;;;10.02;100.00
71774;BME280;59607;52.130;5.430;2023-02-03T13:30:34;102787.53;;;10.02;100.00
71774;BME280;59607;52.130;5.430;2023-02-03T13:36:22;102793.41;;;10.05;100.00
71774;BME280;59607;52.130;5.430;2023-02-03T13:42:18;102785.44;;;10.07;100.00
71774;BME280;59607;52.130;5.430;2023-02-03T13:44:57;102788.16;;;10.05;100.00
71774;BME280;59607;52.130;5.430;2023-02-03T13:47:31;102784.56;;;10.06;100.00
71774;BME280;59607;52.130;5.430;2023-02-03T13:50:14;102788.97;;;10.06;100.00
71774;BME280;59607;52.130;5.430;2023-02-03T13:56:04;102786.34;;;10.06;100.00
71774;BME280;59607;52.130;5.430;2023-02-03T14:01:41;102782.69;;;10.08;100.00
71774;BME280;59607;52.130;5.430;2023-02-03T14:12:31;102779.13;;;10.09;100.00
71774;BME280;59607;52.130;5.430;2023-02-03T14:15:12;102800.09;;;10.09;100.00
71774;BME280;59607;52.130;5.430;2023-02-03T14:25:41;102815.63;;;9.99;100.00
71774;BME280;59607;52.130;5.430;2023-02-03T14:28:35;102817.44;;;9.99;100.00
71774;BME280;59607;52.130;5.430;2023-02-03T14:31:23;102823.72;;;9.96;100.00
71774;BME280;59607;52.130;5.430;2023-02-03T14:34:05;102829.28;;;9.92;100.00
71774;BME280;59607;52.130;5.430;2023-02-03T14:36:47;102835.50;;;9.91;100.00
71774;BME280;59607;52.130;5.430;2023-02-03T14:50:33;102842.22;;;9.82;98.43
71774;BME280;59607;52.130;5.430;2023-02-03T14:58:39;102850.28;;;9.79;98.08
71774;BME280;59607;52.130;5.430;2023-02-03T15:04:20;102849.56;;;9.77;95.72
71774;BME280;59607;52.130;5.430;2023-02-03T15:06:51;102848.63;;;9.78;94.94
71774;BME280;59607;52.130;5.430;2023-02-03T15:09:30;102843.59;;;9.74;96.20
71774;BME280;59607;52.130;5.430;2023-02-03T15:12:24;102838.34;;;9.74;96.13
71774;BME280;59607;52.130;5.430;2023-02-03T15:15:27;102832.59;;;9.69;95.41
71774;BME280;59607;52.130;5.430;2023-02-03T15:17:59;102836.28;;;9.67;93.98
71774;BME280;59607;52.130;5.430;2023-02-03T15:20:52;102831.13;;;9.65;95.31
71774;BME280;59607;52.130;5.430;2023-02-03T15:23:28;102829.22;;;9.67;95.82
71774;BME280;59607;52.130;5.430;2023-02-03T15:25:59;102843.28;;;9.66;94.22